Terminal Aerodrome Forecast
Issued by NWS

Home | Current Version | Previous Version | Text Only | Print | Product List | Glossary On
Versions: 1 2 3 4 5 6 7 8 9 10 11 12 13 14 15 16 17 18 19 20 21 22 23 24 25 26 27
000
FTUS44 KLZK 200500
TAFHRO
TAF
KHRO 200520Z 2006/2106 14003KT 1/4SM FG VV001
     FM201530 14005KT 3SM BR OVC005
     FM201700 15006KT 5SM BR OVC012
     FM202100 13004KT P6SM BKN030
     FM210300 15005KT P6SM SCT030=

USA.gov is the U.S. government's official web portal to all federal, state and local government web resources and services.